Rhame, ND (58651)

7:57 PM MDT on August 30, 2014 (GMT -0600)
RAWS SAND CREEK ND US | Change Station
CLOSE
Current Station
Personal Weather Station
Location: Amidon, ND
Elevation: 2748 ft
Nearby Weather Stations

Elev 2748 ft 46.55 °N, 103.52 °W | Updated 27 minutes ago

Partly Cloudy
Partly Cloudy
64 °F
Feels Like 64 °F
N
4
Wind Variable Wind from ESE
Gusts 31.0 mph

Today
High -- | Low -- °F
--% Chance of Precip.
Yesterday
High -- | Low -- °F
Precip. -- in
6:12 AM 7:36 PM
Waxing Crescent, 26% visible
Pressure 29.69 in
Visibility 10.0 miles
Clouds Scattered Clouds 12000 ft
Dew Point 61 °F
Humidity 90%
Rainfall 0.05 in
Snow Depth Not available.
UV 0 out of 12
Pollen 9.90 out of 12
Air Quality Not available.
Flu Activity Not available.
METAR KBHK 310151Z AUTO 29013KT 10SM SCT120 18/14 A2973 RMK AO2 LTG DSNT E AND SE SLP053 T01830139

More Conditions Fewer Conditions

Pressure 29.69 in
Visibility 10.0 miles
Clouds Scattered Clouds 12000 ft
Dew Point 61 °F
Humidity 90%
Rainfall 0.05 in
Snow Depth Not available.
UV 0 out of 12
Pollen 9.90 out of 12
Air Quality Not available.
Flu Activity Not available.
METAR KBHK 310151Z AUTO 29013KT 10SM SCT120 18/14 A2973 RMK AO2 LTG DSNT E AND SE SLP053 T01830139

More Conditions Fewer Conditions

10-Day Weather Forecast

Almanac

Astronomy

Aug. 30, 2014 Rise Set
Actual Time 6:12 AM MDT 7:36 PM MDT
Civil Twilight 5:41 AM MDT 8:08 PM MDT
Nautical Twilight 5:03 AM MDT 8:45 PM MDT
Astronomical Twilight 4:23 AM MDT 9:25 PM MDT
Moon 11:20 AM MDT (8/30) 9:53 PM MDT (8/30)
Length of Visible Light 14h 26m
Length of Day
13h 24m
Tomorrow will be 3m 8s shorter.
Waxing Crescent, 26% of the Moon is Illuminated
Today
Waxing Crescent
Sep 2
First Quarter
Sep 8
Full
Sep 15
Last Quarter
Sep 24
New

Today's Extremes

State Highs State Lows

Community

WunderPhotos

Upload Photos

1,748,720 photos uploaded!

Nearby

Snow Depth

Station Depth Elevation
No new snow has been reported.

Earthquake Activity

City Distance Mag. Time & Date
No recent earthquake activity has been reported nearby.
Minimum magnitude displayed is 2.5.

Coastal Water Temperatures

Place Temperature
No Stations Reporting

Nearby Weather Stations